9  °C
Temperature
8  °C
  Dewpoint
94  %
   Humidity
Temp | Dewpoint | Humidity
10  km/h
Wind Speed
6  mph
Wind Speed
5  kts
Wind Speed
300°
West North
West

Wind Speed
Partly Cloudy
Conditions
Pressure 1019.92 (hPa) - 30.12 (in)
Visibility 6.2 (mi) - 10.0 (km)

Current Conditions
LGSA
Location Chania International 6km (3.2mi)
Metar :LGSA 210250Z 30005KT 9999 FEW030 09/08 Q1020
Thu 21st February 04:50 am

Airport
  Metar Aviation API Data Provided by https://www.checkwx.com/ CSS/SVG/PHP scripts by weather34.com © 2015-2019